Roscoe, Pennsylvania
Current Conditions -  °F | °C
As of 6:53 AM on Friday 19 Dec 2014 (Local Time) from KAGC Reporting Station
Haze Haze  
Wind Chill: 18°   Ceiling: 900
Heat Index: 27°   Visibility: 4mi
Dew Point: 22°   Wind: 9mph
Humidity: 81%   Direction: 260°W
Pressure: 30.16"   Gusts: NA
Location:  40.08°N, 79.87°W
Report Text: KAGC 191153Z 26008KT 4SM HZ OVC009 M03/M06 A3016 RMK AO2 SLP233 I6000 T10281056 11028 21028 53009
Loading
Personal Weather Stations






























Interactive Weather Map New forecast layout! Learn more

10-Day Weather Forecast

Advertisements
Track Severe Weather on mobile